createdAt,value
2019-05-13T07:17:32.355Z,47.10
2019-05-13T07:20:02.309Z,49.00
2019-05-13T07:22:32.311Z,49.70
2019-05-13T07:56:42.655Z,51.60
2019-05-13T07:59:12.268Z,52.70
2019-05-13T08:01:41.921Z,52.50
2019-05-13T08:04:21.828Z,53.10
2019-05-13T08:06:42.592Z,54.00
2019-05-13T08:09:12.796Z,52.50
2019-05-13T08:11:59.942Z,55.60
2019-05-13T08:14:12.542Z,55.50
2019-05-13T08:16:42.689Z,53.30
2019-05-13T08:19:12.460Z,52.40
2019-05-13T08:21:41.892Z,52.80
2019-05-13T08:24:11.939Z,54.50
2019-05-13T08:26:44.907Z,53.70
2019-05-13T08:29:11.662Z,53.80
2019-05-13T08:31:41.208Z,54.50
2019-05-13T08:34:11.771Z,53.40
2019-05-13T08:36:42.581Z,53.50
2019-05-13T08:39:12.813Z,53.50
2019-05-13T08:41:42.447Z,53.00
2019-05-13T08:44:12.372Z,54.50
2019-05-13T08:46:41.727Z,55.40
2019-05-13T08:49:11.879Z,52.30
2019-05-13T08:51:42.236Z,52.20
2019-05-13T08:54:11.627Z,54.50
2019-05-13T08:56:41.597Z,53.60
2019-05-13T08:59:11.541Z,54.50
2019-05-13T09:01:42.735Z,56.30
2019-05-13T09:04:11.949Z,54.90
2019-05-13T09:06:41.865Z,54.40
2019-05-13T09:09:11.645Z,53.90
2019-05-13T09:11:42.198Z,52.00
2019-05-13T09:14:11.362Z,51.10
2019-05-13T09:16:41.883Z,52.20
2019-05-13T09:19:15.788Z,52.80
2019-05-13T09:21:42.370Z,51.70
2019-05-13T09:24:21.759Z,51.60
2019-05-13T09:26:42.269Z,52.50
2019-05-13T09:29:12.012Z,53.30
2019-05-13T09:31:41.672Z,52.70
2019-05-13T09:34:12.224Z,52.20
2019-05-13T09:36:41.871Z,51.20
2019-05-13T09:39:12.573Z,52.20
2019-05-13T09:41:44.510Z,50.30
2019-05-13T09:44:12.500Z,48.30
2019-05-13T09:46:42.474Z,48.80
2019-05-13T09:49:19.096Z,48.90
2019-05-13T09:51:42.175Z,48.80
2019-05-13T09:54:11.809Z,49.20
2019-05-13T09:56:41.418Z,47.80
2019-05-13T09:59:11.744Z,48.90
2019-05-13T10:01:42.499Z,48.30
2019-05-13T10:04:12.011Z,46.70
2019-05-13T10:06:42.087Z,46.80
2019-05-13T10:09:12.616Z,47.30
2019-05-13T10:11:41.880Z,47.50
2019-05-13T10:14:11.645Z,47.20
2019-05-13T10:16:42.520Z,47.90
2019-05-13T10:19:12.679Z,47.40
2019-05-13T10:21:42.324Z,48.20
2019-05-13T10:24:12.596Z,47.90
2019-05-13T10:26:43.024Z,48.30
2019-05-13T10:29:12.307Z,49.00
2019-05-13T10:31:42.070Z,47.30
2019-05-13T10:34:14.008Z,47.60
2019-05-13T10:36:42.400Z,47.70
2019-05-13T10:39:12.034Z,48.70
2019-05-13T10:41:42.292Z,47.30
2019-05-13T10:44:12.248Z,47.70
2019-05-13T10:46:42.523Z,47.50
2019-05-13T10:49:12.255Z,46.80
2019-05-13T10:51:42.012Z,48.20
2019-05-13T10:54:11.001Z,48.60
2019-05-13T10:56:42.474Z,46.10
2019-05-13T10:59:12.628Z,46.00
2019-05-13T11:01:42.683Z,44.80
2019-05-13T11:04:13.429Z,44.10
2019-05-13T11:06:42.054Z,45.40
2019-05-13T11:09:13.069Z,48.00
2019-05-13T11:11:42.301Z,47.40
2019-05-13T11:14:15.287Z,46.50
2019-05-13T11:16:42.610Z,44.80
2019-05-13T11:19:12.066Z,45.60
2019-05-13T11:21:43.361Z,45.10
2019-05-13T11:24:12.853Z,44.40
2019-05-13T11:26:42.378Z,45.30
2019-05-13T11:29:12.128Z,45.20
2019-05-13T11:31:42.899Z,46.40
2019-05-13T11:34:12.145Z,44.50
2019-05-13T11:36:43.110Z,45.50
2019-05-13T11:39:13.158Z,44.60
2019-05-13T11:41:42.949Z,44.70
2019-05-13T11:44:16.447Z,45.10
2019-05-13T11:46:43.376Z,43.60
2019-05-13T11:49:12.630Z,44.10
2019-05-13T11:51:42.656Z,43.40
2019-05-13T11:54:13.881Z,44.50
2019-05-13T11:56:49.475Z,44.80
2019-05-13T11:59:14.709Z,44.70
2019-05-13T12:01:44.129Z,43.10
2019-05-13T12:04:13.330Z,43.30
2019-05-13T12:06:47.880Z,43.60
2019-05-13T12:09:13.504Z,44.00
2019-05-13T12:11:42.615Z,43.50
2019-05-13T12:14:37.249Z,44.30
2019-05-13T12:16:42.657Z,44.90
2019-05-13T12:19:12.081Z,45.20
2019-05-13T12:21:45.914Z,45.40
2019-05-13T12:24:12.462Z,43.90
2019-05-13T12:26:43.449Z,43.70
2019-05-13T12:29:18.537Z,44.00
2019-05-13T12:31:43.296Z,44.80
2019-05-13T12:34:13.373Z,44.40
2019-05-13T12:36:43.502Z,43.80
2019-05-13T12:39:14.343Z,43.20
2019-05-13T12:41:43.861Z,43.70
2019-05-13T12:44:13.426Z,44.10
2019-05-13T12:46:49.915Z,44.00
2019-05-13T12:49:14.869Z,44.30
2019-05-13T12:51:44.355Z,44.70
2019-05-13T12:54:14.298Z,45.00
2019-05-13T12:56:44.104Z,44.50
2019-05-13T12:59:13.641Z,44.50
2019-05-13T13:01:42.787Z,44.70
2019-05-13T13:04:12.576Z,45.30
2019-05-13T13:06:45.380Z,45.50
2019-05-13T13:09:13.249Z,46.20
2019-05-13T13:11:43.956Z,46.20
2019-05-13T13:14:15.633Z,45.80
2019-05-13T13:16:44.897Z,46.30
2019-05-13T13:19:15.057Z,46.60
2019-05-13T13:21:44.650Z,46.30
2019-05-13T13:24:13.908Z,45.80
2019-05-13T13:26:43.092Z,46.60
2019-05-13T13:29:12.685Z,46.80
2019-05-13T13:31:43.129Z,46.20
2019-05-13T13:34:18.061Z,46.00
2019-05-13T13:36:46.132Z,46.00
2019-05-13T13:39:15.279Z,46.40
2019-05-13T13:41:44.569Z,45.50
2019-05-13T13:44:13.695Z,44.60
2019-05-13T13:46:49.078Z,45.10
2019-05-13T13:49:13.983Z,45.40
2019-05-13T13:51:44.549Z,46.40
2019-05-13T13:54:14.086Z,46.70
2019-05-13T13:56:44.477Z,47.00
2019-05-13T13:59:14.492Z,47.90
2019-05-13T14:01:43.788Z,48.70
2019-05-13T14:04:16.452Z,48.80
2019-05-13T14:09:14.722Z,48.30
2019-05-13T14:11:44.147Z,48.00
2019-05-13T14:14:13.643Z,47.50
2019-05-13T14:16:46.512Z,47.50
2019-05-13T14:19:14.188Z,47.00
2019-05-13T14:21:43.392Z,47.30
2019-05-13T14:24:12.809Z,46.20
2019-05-13T14:26:43.488Z,45.90
2019-05-13T14:29:13.337Z,45.60
2019-05-13T14:31:43.149Z,46.50
2019-05-13T14:34:12.271Z,46.80
2019-05-13T14:36:41.205Z,46.50
2019-05-13T14:39:12.029Z,46.70
2019-05-13T14:41:42.578Z,47.70
2019-05-13T14:44:12.483Z,47.80
2019-05-13T14:46:46.987Z,46.60
2019-05-13T14:49:12.424Z,46.60
2019-05-13T14:51:41.687Z,46.40
2019-05-13T14:54:10.599Z,46.80
2019-05-13T15:37:03.438Z,49.50
2019-05-13T15:39:32.663Z,49.90
2019-05-13T15:44:47.043Z,49.90
2019-05-13T15:47:24.135Z,49.60
2019-05-13T15:49:47.617Z,49.60
2019-05-13T15:52:17.179Z,49.90
2019-05-13T15:54:46.348Z,49.70
2019-05-13T15:57:16.527Z,50.10
2019-05-13T15:59:45.743Z,50.00
2019-05-13T16:02:36.264Z,49.70
2019-05-13T16:05:06.403Z,49.30
2019-05-13T16:07:35.971Z,49.70
2019-05-13T16:10:06.828Z,50.00
2019-05-13T16:12:36.362Z,49.90
2019-05-13T16:15:12.410Z,49.90
2019-05-13T16:17:44.110Z,49.60
2019-05-13T16:20:11.643Z,50.30
2019-05-13T16:22:42.032Z,50.30
2019-05-13T16:25:12.054Z,50.40
2019-05-13T16:27:41.651Z,50.60
2019-05-13T16:30:12.473Z,50.60
2019-05-13T16:32:42.473Z,51.20
2019-05-13T16:35:13.692Z,51.40
2019-05-13T16:37:42.942Z,51.20
2019-05-13T16:40:12.278Z,51.80
2019-05-13T16:42:42.278Z,51.90
2019-05-13T16:45:12.596Z,52.40
2019-05-13T16:47:56.749Z,52.80
2019-05-13T16:50:13.058Z,53.50
2019-05-13T16:52:42.273Z,53.20
2019-05-13T16:55:12.880Z,53.60
2019-05-13T16:57:42.542Z,53.60
2019-05-13T17:00:11.778Z,54.10
2019-05-13T17:02:42.224Z,54.00
2019-05-13T17:05:12.273Z,54.70
2019-05-13T17:07:42.298Z,55.10
2019-05-13T17:10:12.517Z,54.70
2019-05-13T17:12:42.924Z,55.10
2019-05-13T17:15:13.122Z,54.80
2019-05-13T17:17:42.617Z,55.10
2019-05-13T17:20:12.718Z,55.20
2019-05-13T17:22:42.503Z,55.30
2019-05-13T17:25:12.630Z,55.20
2019-05-13T17:27:41.992Z,55.60
2019-05-13T17:30:11.483Z,55.90
2019-05-13T17:32:40.837Z,56.00
2019-05-13T17:35:11.660Z,56.20
2019-05-13T17:37:42.194Z,56.30
2019-05-13T17:40:11.818Z,55.90
2019-05-13T17:42:41.762Z,56.40
2019-05-13T17:45:11.489Z,56.50
2019-05-13T17:47:41.877Z,56.70
2019-05-13T17:50:11.811Z,56.70
2019-05-13T17:52:41.516Z,57.20
2019-05-13T17:55:11.746Z,56.40
2019-05-13T17:57:41.605Z,56.90
2019-05-13T18:00:10.754Z,57.30
2019-05-13T18:02:42.015Z,57.00
2019-05-13T18:05:12.116Z,56.70
2019-05-13T18:07:42.120Z,57.20
2019-05-13T18:10:14.230Z,57.20
2019-05-13T18:12:42.376Z,57.30
2019-05-13T18:15:11.875Z,57.50
2019-05-13T18:17:41.752Z,58.00
2019-05-13T18:20:11.068Z,57.90
2019-05-13T18:22:41.967Z,57.90
2019-05-13T18:25:12.025Z,57.70
2019-05-13T18:27:41.695Z,58.10
2019-05-13T18:30:11.458Z,58.40
2019-05-13T18:32:41.093Z,58.40
2019-05-13T18:35:12.045Z,58.40
2019-05-13T18:37:41.964Z,58.50
2019-05-13T18:40:11.674Z,58.40
2019-05-13T18:42:42.148Z,58.30
2019-05-13T18:45:11.991Z,58.70
2019-05-13T18:47:41.225Z,58.40
2019-05-13T18:50:11.532Z,58.90
2019-05-13T18:52:42.009Z,58.70
2019-05-13T18:55:12.383Z,58.90
2019-05-13T18:57:41.902Z,59.10
2019-05-13T19:00:11.828Z,58.80
2019-05-13T19:02:41.564Z,59.30
2019-05-13T19:05:11.849Z,59.50
2019-05-13T19:07:41.960Z,59.80
2019-05-13T19:10:11.543Z,59.90
2019-05-13T19:12:42.115Z,60.00
2019-05-13T19:15:11.649Z,60.30
2019-05-13T19:17:41.569Z,60.20
2019-05-13T19:20:11.681Z,60.00
2019-05-13T19:22:41.526Z,60.00
2019-05-13T19:25:11.861Z,59.80
2019-05-13T19:27:41.562Z,60.30
2019-05-13T19:30:12.106Z,60.60
2019-05-13T19:32:41.826Z,60.70
2019-05-13T19:35:11.885Z,61.10
2019-05-13T19:37:42.482Z,60.80
2019-05-13T19:40:13.014Z,60.90
2019-05-13T19:42:42.967Z,61.10
2019-05-13T19:45:12.022Z,61.30
2019-05-13T19:47:41.847Z,61.90
2019-05-13T19:50:11.189Z,62.40
2019-05-13T19:52:41.450Z,62.40
2019-05-13T19:55:12.058Z,63.00
2019-05-13T19:57:42.530Z,63.20
2019-05-13T20:00:14.169Z,63.60
2019-05-13T20:02:42.783Z,63.50
2019-05-13T20:05:12.163Z,63.70
2019-05-13T20:07:41.960Z,63.80
2019-05-13T20:10:12.030Z,64.20
2019-05-13T20:12:42.019Z,64.60
2019-05-13T20:15:11.858Z,64.90
2019-05-13T20:17:41.611Z,65.00
2019-05-13T20:20:12.355Z,65.20
2019-05-13T20:22:42.218Z,65.10
2019-05-13T20:25:13.165Z,64.90
2019-05-13T20:27:42.420Z,65.20
2019-05-13T20:30:11.811Z,65.30
2019-05-13T20:32:41.112Z,65.40
2019-05-13T20:35:11.450Z,65.80
2019-05-13T20:37:40.834Z,65.90
2019-05-13T20:40:11.603Z,65.90
2019-05-13T20:42:41.416Z,66.00
2019-05-13T20:45:11.534Z,66.10
2019-05-13T20:47:42.019Z,66.30
2019-05-13T20:50:12.375Z,67.10
2019-05-13T20:52:42.052Z,66.30
2019-05-13T20:55:11.182Z,66.10
2019-05-13T20:57:41.762Z,66.30
2019-05-13T21:00:11.599Z,66.60
2019-05-13T21:02:41.672Z,66.40
2019-05-13T21:05:12.131Z,66.60
2019-05-13T21:07:41.798Z,66.60
2019-05-13T21:10:12.161Z,66.50
2019-05-13T21:12:42.013Z,67.00
2019-05-13T21:15:12.955Z,67.10
2019-05-13T21:17:42.312Z,67.50
2019-05-13T21:20:19.452Z,67.50
2019-05-13T21:22:42.569Z,68.00
2019-05-13T21:25:11.419Z,68.00
2019-05-13T21:27:42.125Z,67.90
2019-05-13T21:30:11.961Z,67.70
2019-05-13T21:32:41.090Z,68.00
2019-05-13T21:35:11.881Z,67.70
2019-05-13T21:37:40.899Z,68.00
2019-05-13T21:40:11.171Z,68.00
2019-05-13T21:42:41.968Z,67.70
2019-05-13T21:45:11.549Z,68.30
2019-05-13T21:47:40.711Z,68.20
2019-05-13T21:50:11.566Z,68.30
2019-05-13T21:52:41.865Z,68.60
2019-05-13T21:55:11.517Z,69.60
2019-05-13T21:57:41.446Z,70.60
2019-05-13T22:00:12.282Z,71.10
2019-05-13T22:02:41.391Z,70.90
2019-05-13T22:05:11.644Z,70.90
2019-05-13T22:07:42.062Z,70.60
2019-05-13T22:10:11.142Z,70.90
2019-05-13T22:12:41.418Z,71.00
2019-05-13T22:15:10.677Z,71.90
2019-05-13T22:17:42.087Z,73.30
2019-05-13T22:20:12.170Z,73.20
2019-05-13T22:22:41.599Z,74.20
2019-05-13T22:25:12.125Z,74.50
2019-05-13T22:27:41.348Z,75.00
2019-05-13T22:30:11.840Z,75.20
2019-05-13T22:32:41.794Z,75.30
2019-05-13T22:35:11.210Z,75.30
2019-05-13T22:37:40.560Z,74.50
2019-05-13T22:40:11.236Z,74.40
2019-05-13T22:42:41.517Z,73.60
2019-05-13T22:45:11.732Z,73.20
2019-05-13T22:47:41.786Z,72.80
2019-05-13T22:50:12.260Z,72.80
2019-05-13T22:52:41.951Z,72.60
2019-05-13T22:55:11.534Z,72.40
2019-05-13T22:57:41.961Z,72.30
2019-05-13T23:00:11.852Z,72.00
2019-05-13T23:02:42.194Z,72.00
2019-05-13T23:05:11.453Z,72.00
2019-05-13T23:07:40.640Z,71.80
2019-05-13T23:10:11.859Z,71.70
2019-05-13T23:12:42.059Z,71.60
2019-05-13T23:15:11.911Z,71.50
2019-05-13T23:17:41.611Z,71.40
2019-05-13T23:20:10.519Z,71.40
2019-05-13T23:22:41.478Z,71.50
2019-05-13T23:25:12.168Z,71.60
2019-05-13T23:27:41.573Z,71.80
2019-05-13T23:30:11.696Z,72.70
2019-05-13T23:32:40.930Z,73.40
2019-05-13T23:35:11.150Z,74.10
2019-05-13T23:37:41.685Z,74.90
2019-05-13T23:40:11.883Z,75.20
2019-05-13T23:42:41.232Z,75.80
2019-05-13T23:45:11.431Z,76.10
2019-05-13T23:47:41.754Z,75.70
2019-05-13T23:50:12.532Z,75.70
2019-05-13T23:52:41.971Z,75.60
2019-05-13T23:55:11.112Z,75.70
2019-05-13T23:57:42.166Z,75.50
